Flight Track Log - Related Links

Times and Time Zones

All times are in EDT time to prevent confusion due to time zone crossing. See the SBS3563 flight status page for this flight to view local times or setup timezone preferences in your user account.

Time Position Orientation Groundspeed Altitude Reporting Facility
EDT Latitude Longitude Course Direction KTS MPH feet Rate Location/Type
Sat 02:41:00 PM 18.3333 -64.9833 270° West 140 161 600  Level San Juan Center
Sat 02:42:01 PM 18.3333 -65.0500 270° West 190 219 1,900 1,339 Climbing San Juan Center
Sat 02:43:01 PM 18.3333 -65.1000 270° West 180 207 3,300 1,350 Climbing San Juan Center
Sat 02:44:01 PM 18.3333 -65.1500 270° West 180 207 4,600 1,190 Climbing San Juan Center
Sat 02:45:02 PM 18.3333 -65.2000 270° West 180 207 5,700 694 Climbing San Juan Center
Sat 02:46:02 PM 18.3333 -65.2667 270° West 210 242 6,000 150 Climbing San Juan Center
Sat 02:47:02 PM 18.3500 -65.3167 289° West 190 219 6,000  Level San Juan Center
Sat 02:48:03 PM 18.3500 -65.3833 270° West 200 230 6,000  Level San Juan Center
Sat 02:49:03 PM 18.3500 -65.4333 270° West 200 230 6,000  Level San Juan Center
Sat 02:50:04 PM 18.3500 -65.5000 270° West 200 230 6,000  Level San Juan Center
Sat 02:51:04 PM 18.3667 -65.5500 289° West 190 219 6,000  Level San Juan Center
Sat 02:52:04 PM 18.3667 -65.6167 270° West 190 219 6,000  Level San Juan Center
Sat 02:53:05 PM 18.3667 -65.6667 270° West 200 230 6,000  Level San Juan Center
Sat 02:54:05 PM 18.3667 -65.7333 270° West 190 219 6,000 -50 Level San Juan Center
Sat 02:55:06 PM 18.3667 -65.7833 270° West 200 230 5,900 -496 Descending San Juan Center
Sat 02:56:06 PM 18.3667 -65.8333 270° West 180 207 5,000 -900 Descending San Juan Center
Sat 02:57:06 PM 18.3667 -65.8833 270° West 170 196 4,100 -900 Descending San Juan Center
Sat 02:58:06 PM 18.3667 -65.9333 270° West 180 207 3,200 -793 Descending San Juan Center
Sat 02:59:07 PM 18.3667 -66.0000 270° West 190 219 2,500 -347 Descending San Juan Center
Sat 03:00:07 PM 18.3667 -66.0500 270° West 170 196 2,500 -298 Level San Juan Center
Sat 03:01:08 PM 18.3833 -66.1000 289° West 180 207 1,900 -595 Descending San Juan Center
Sat 03:02:08 PM 18.4167 -66.0833 25° Northeast 150 173 1,300 -550 Descending San Juan Center
Sat 03:03:08 PM 18.4333 -66.0500 62° Northeast 140 161 800 -545 Descending San Juan Center
Sat 03:04:09 PM 18.4333 -66.0167 90° East 110 127 200 -590 Descending San Juan Center

Login

Don't have an account? Register now (free) for customized features, flight alerts, and more!